Time;durP1;ratioP1;P1;durP2;ratioP2;P2;SDS_P1;SDS_P2;PMS_P1;PMS_P2;Temp;Humidity;BMP_temperature;BMP_pressure;BME280_temperature;BME280_humidity;BME280_pressure;Samples;Min_cycle;Max_cycle;Signal;HPM_P1;HPM_P2
2022/07/09 00:06:19;;;;;;;1.70;1.30;;;12.00;99.90;;;;;;20978979;28;20405;-54
2022/07/09 00:16:22;;;;;;;2.17;1.20;;;12.00;99.90;;;;;;20978646;28;20044;-52
2022/07/09 00:26:25;;;;;;;4.00;2.10;;;11.90;99.90;;;;;;20977766;28;20421;-46
2022/07/09 00:36:27;;;;;;;2.97;1.60;;;11.80;99.90;;;;;;20960606;28;20483;-53
2022/07/09 00:46:29;;;;;;;3.58;1.30;;;11.60;99.90;;;;;;20976632;28;20434;-54
2022/07/09 00:56:33;;;;;;;1.17;0.98;;;11.50;99.90;;;;;;20975542;28;20036;-54
2022/07/09 01:06:35;;;;;;;2.45;0.90;;;11.30;99.90;;;;;;20974723;28;20052;-46
2022/07/09 01:16:37;;;;;;;1.05;0.88;;;11.20;99.90;;;;;;20974177;28;20360;-54
2022/07/09 01:26:40;;;;;;;1.40;0.50;;;11.10;99.90;;;;;;20974368;28;20036;-55
2022/07/09 01:36:42;;;;;;;0.70;0.60;;;11.00;99.90;;;;;;20972163;28;20033;-53
2022/07/09 01:46:44;;;;;;;1.40;0.40;;;10.90;99.90;;;;;;20971304;28;20044;-54
2022/07/09 01:56:46;;;;;;;1.02;0.75;;;10.80;99.10;;;;;;20970470;28;20466;-54
2022/07/09 02:06:49;;;;;;;2.25;0.63;;;10.70;99.90;;;;;;20986195;28;20050;-49
2022/07/09 02:16:52;;;;;;;1.25;0.60;;;10.70;99.90;;;;;;20985469;28;20048;-49
2022/07/09 02:26:54;;;;;;;0.80;0.68;;;10.60;98.50;;;;;;20985579;28;20114;-46
2022/07/09 02:36:57;;;;;;;1.58;0.55;;;10.40;98.70;;;;;;20968489;28;20041;-48
2022/07/09 02:46:59;;;;;;;0.52;0.40;;;10.40;99.10;;;;;;20968088;28;20090;-46
2022/07/09 02:57:02;;;;;;;0.82;0.45;;;10.30;97.50;;;;;;20967070;28;20032;-54
2022/07/09 03:07:04;;;;;;;0.47;0.40;;;10.30;97.50;;;;;;20966487;28;20071;-48
2022/07/09 03:17:07;;;;;;;0.60;0.43;;;10.30;97.00;;;;;;20966637;28;20036;-47
2022/07/09 03:27:09;;;;;;;0.75;0.40;;;10.30;96.90;;;;;;20966131;28;20447;-48
2022/07/09 03:37:12;;;;;;;0.20;0.20;;;11.20;97.20;;;;;;20981075;28;20181;-47
2022/07/09 03:47:15;;;;;;;2.15;0.40;;;11.40;96.60;;;;;;20980786;28;20041;-57
2022/07/09 03:57:17;;;;;;;0.90;0.40;;;11.10;96.40;;;;;;20979969;28;20028;-52
2022/07/09 04:07:20;;;;;;;0.40;0.30;;;11.10;95.10;;;;;;20979266;28;20049;-50
2022/07/09 04:17:22;;;;;;;0.38;0.38;;;10.90;93.80;;;;;;20962564;28;20110;-51
2022/07/09 04:27:25;;;;;;;0.32;0.28;;;10.60;94.20;;;;;;20978202;28;20397;-55
2022/07/09 04:37:27;;;;;;;1.05;0.50;;;10.40;95.40;;;;;;20976868;28;20028;-52
2022/07/09 04:47:29;;;;;;;3.05;1.00;;;10.40;95.60;;;;;;20975751;28;20036;-48
2022/07/09 04:57:32;;;;;;;1.08;0.70;;;10.70;95.20;;;;;;20975651;28;20036;-47
2022/07/09 05:07:34;;;;;;;0.98;0.45;;;11.00;95.80;;;;;;20975716;28;20048;-49
2022/07/09 05:17:38;;;;;;;0.45;0.30;;;10.90;95.50;;;;;;20974226;28;20542;-55
2022/07/09 05:27:42;;;;;;;0.65;0.40;;;11.00;95.40;;;;;;20973308;28;20400;-54
2022/07/09 05:37:44;;;;;;;2.83;0.38;;;11.00;96.10;;;;;;20955802;28;20478;-55
2022/07/09 05:47:46;;;;;;;0.77;0.40;;;11.20;93.30;;;;;;20972686;28;20562;-48
2022/07/09 05:57:49;;;;;;;0.75;0.40;;;11.90;91.80;;;;;;20953857;28;20085;-48
2022/07/09 06:07:51;;;;;;;0.20;0.20;;;12.50;92.50;;;;;;20986539;28;20048;-47
2022/07/09 06:17:54;;;;;;;0.88;0.40;;;12.80;89.70;;;;;;20985946;28;20075;-53
2022/07/09 06:27:56;;;;;;;0.60;0.20;;;16.60;85.20;;;;;;20985236;28;20037;-57
2022/07/09 06:38:00;;;;;;;2.83;0.38;;;21.30;70.50;;;;;;20968117;28;20385;-58
2022/07/09 06:48:03;;;;;;;0.22;0.22;;;23.00;63.20;;;;;;20969135;28;20381;-58
2022/07/09 06:58:05;;;;;;;0.38;0.20;;;24.20;63.10;;;;;;20967271;28;20033;-57
2022/07/09 07:08:08;;;;;;;0.82;0.20;;;24.70;59.80;;;;;;20959898;28;20570;-58
2022/07/09 07:18:11;;;;;;;0.77;0.43;;;25.80;59.60;;;;;;20984673;28;20097;-58
2022/07/09 07:28:13;;;;;;;1.08;0.40;;;25.80;58.40;;;;;;20982666;28;20033;-58
2022/07/09 07:38:16;;;;;;;0.50;0.30;;;25.70;59.40;;;;;;20981816;28;20090;-59
2022/07/09 07:48:18;;;;;;;1.80;0.50;;;26.50;58.00;;;;;;20980947;28;20029;-56
2022/07/09 07:58:21;;;;;;;0.30;0.28;;;26.80;59.70;;;;;;20980263;28;20032;-59
2022/07/09 08:08:23;;;;;;;0.47;0.30;;;26.50;58.70;;;;;;20978680;28;20094;-59
2022/07/09 08:18:26;;;;;;;0.40;0.35;;;25.80;61.30;;;;;;20976876;28;20390;-59
2022/07/09 08:28:29;;;;;;;1.83;0.40;;;25.60;62.80;;;;;;20977242;28;20036;-57
2022/07/09 08:38:31;;;;;;;0.52;0.40;;;25.80;64.30;;;;;;20977421;28;20105;-57
2022/07/09 08:48:36;;;;;;;0.73;0.40;;;26.40;68.40;;;;;;20976534;28;20036;-59
2022/07/09 08:58:39;;;;;;;0.97;0.40;;;26.20;68.70;;;;;;20975265;28;20164;-57
2022/07/09 09:08:45;;;;;;;0.60;0.60;;;26.30;74.10;;;;;;20974545;28;20048;-57
2022/07/09 09:18:51;;;;;;;1.65;0.68;;;26.30;67.40;;;;;;20974201;28;20029;-59
2022/07/09 09:28:58;;;;;;;0.82;0.65;;;24.80;73.80;;;;;;20973455;28;20041;-58
2022/07/09 09:39:24;;;;;;;1.17;0.70;;;22.90;76.20;;;;;;20972271;28;20066;-57
2022/07/09 09:49:26;;;;;;;1.60;1.20;;;20.50;84.30;;;;;;20972270;28;20036;-51
2022/07/09 09:59:29;;;;;;;2.40;1.10;;;19.70;88.60;;;;;;20970083;28;20044;-58
2022/07/09 10:09:31;;;;;;;3.90;0.80;;;20.10;90.70;;;;;;20969350;28;20052;-62
2022/07/09 10:19:34;;;;;;;3.75;0.80;;;22.50;90.00;;;;;;20952810;28;20066;-60
2022/07/09 10:29:57;;;;;;;1.40;0.73;;;25.00;83.70;;;;;;20979112;28;20086;-59
2022/07/09 10:40:16;;;;;;;2.33;1.10;;;24.90;84.10;;;;;;20967502;28;20040;-56
2022/07/09 10:50:18;;;;;;;1.77;1.23;;;24.50;81.60;;;;;;20967378;28;20036;-58
2022/07/09 11:00:29;;;;;;;2.08;1.23;;;23.30;87.00;;;;;;20967211;28;20040;-59
2022/07/09 11:10:35;;;;;;;3.08;1.60;;;23.00;89.20;;;;;;20966549;28;20427;-59
2022/07/09 11:20:44;;;;;;;1.40;1.30;;;22.70;88.50;;;;;;20950371;28;20370;-59
2022/07/09 11:30:56;;;;;;;1.70;1.60;;;23.00;87.80;;;;;;20966275;28;20102;-59
2022/07/09 11:41:00;;;;;;;1.52;1.42;;;23.30;84.10;;;;;;20965537;28;20040;-59
2022/07/09 11:51:03;;;;;;;2.90;1.80;;;22.70;88.60;;;;;;20968481;28;20020;-59
2022/07/09 12:01:10;;;;;;;2.63;1.95;;;22.80;90.80;;;;;;20980521;28;20036;-59
2022/07/09 12:11:13;;;;;;;3.97;1.97;;;22.90;87.00;;;;;;20979179;28;20100;-57
2022/07/09 12:21:16;;;;;;;3.33;1.70;;;23.80;90.00;;;;;;20975813;28;20090;-64
2022/07/09 12:31:19;;;;;;;2.10;1.40;;;26.30;86.00;;;;;;20956798;28;20437;-65
2022/07/09 12:41:21;;;;;;;4.75;1.98;;;26.30;80.40;;;;;;20895867;28;20090;-70
2022/07/09 12:51:24;;;;;;;2.50;2.20;;;26.30;85.70;;;;;;20896116;28;20032;-61
2022/07/09 13:01:26;;;;;;;2.33;1.50;;;25.90;82.10;;;;;;20944100;28;20098;-59
2022/07/09 13:11:29;;;;;;;3.10;1.92;;;24.50;82.10;;;;;;20974288;28;20097;-60
2022/07/09 13:21:33;;;;;;;5.50;2.20;;;24.90;83.60;;;;;;20975496;28;20033;-59
2022/07/09 13:31:36;;;;;;;3.42;2.30;;;23.60;86.20;;;;;;20974203;28;20040;-59
2022/07/09 13:41:38;;;;;;;2.83;1.90;;;22.70;88.80;;;;;;20971712;28;20093;-59
2022/07/09 13:51:41;;;;;;;1.42;1.20;;;22.00;89.80;;;;;;20971690;28;20078;-60
2022/07/09 14:01:44;;;;;;;3.58;1.38;;;21.60;91.80;;;;;;20970068;28;20109;-60
2022/07/09 14:11:47;;;;;;;5.07;1.90;;;21.50;91.40;;;;;;20920469;28;20057;-60
2022/07/09 14:21:50;;;;;;;3.75;2.05;;;21.40;92.40;;;;;;20902624;28;20032;-60
2022/07/09 14:31:53;;;;;;;3.30;2.20;;;21.70;91.00;;;;;;20902642;28;20367;-60
2022/07/09 14:41:55;;;;;;;2.20;1.50;;;21.90;90.40;;;;;;20902310;28;20033;-61
2022/07/09 14:51:59;;;;;;;2.83;1.55;;;22.80;91.00;;;;;;20901330;28;20041;-61
2022/07/09 15:02:03;;;;;;;2.35;1.55;;;25.00;84.20;;;;;;20868701;28;20041;-58
2022/07/09 15:12:06;;;;;;;2.30;1.50;;;23.70;87.70;;;;;;20900430;28;20418;-61
2022/07/09 15:22:10;;;;;;;2.97;1.30;;;24.90;84.80;;;;;;20900443;28;20063;-58
2022/07/09 15:32:12;;;;;;;3.45;1.50;;;24.90;83.00;;;;;;20915061;28;20394;-60
2022/07/09 15:42:15;;;;;;;1.98;1.08;;;23.90;86.60;;;;;;20915788;28;20107;-60
2022/07/09 15:52:18;;;;;;;5.28;1.83;;;22.20;90.10;;;;;;20915029;28;20462;-60
2022/07/09 16:02:20;;;;;;;4.13;2.30;;;20.50;91.10;;;;;;20913871;28;20456;-59
2022/07/09 16:22:46;;;;;;;3.00;2.00;;;19.10;94.70;;;;;;20882458;28;20079;-60
2022/07/09 16:32:49;;;;;;;2.45;1.50;;;18.80;95.00;;;;;;20894764;28;20382;-60
2022/07/09 16:42:52;;;;;;;3.25;1.63;;;18.40;96.40;;;;;;20893581;28;20117;-62
2022/07/09 16:52:54;;;;;;;4.28;2.10;;;18.10;96.30;;;;;;20893240;28;20041;-59
2022/07/09 17:02:57;;;;;;;3.95;1.88;;;17.90;96.70;;;;;;20892486;28;20205;-61
2022/07/09 17:12:59;;;;;;;3.40;1.95;;;17.60;96.70;;;;;;20966097;28;20044;-60
2022/07/09 17:23:03;;;;;;;2.17;1.95;;;17.30;97.00;;;;;;20973633;28;20029;-60
2022/07/09 17:33:06;;;;;;;4.47;2.20;;;17.10;97.90;;;;;;20970751;28;20102;-60
2022/07/09 17:43:08;;;;;;;3.58;2.28;;;16.90;98.10;;;;;;20971159;28;20037;-59
2022/07/09 17:53:10;;;;;;;2.90;2.70;;;16.70;98.50;;;;;;20970413;28;20063;-60
2022/07/09 18:03:13;;;;;;;4.10;2.53;;;16.40;99.10;;;;;;20952888;28;20539;-60
2022/07/09 18:13:15;;;;;;;6.82;2.65;;;16.10;99.90;;;;;;20968532;28;20546;-60
2022/07/09 18:23:18;;;;;;;3.28;2.00;;;16.00;99.70;;;;;;20986927;28;20089;-60
2022/07/09 18:33:21;;;;;;;4.22;2.60;;;15.80;99.90;;;;;;21049961;28;20043;-59
2022/07/09 18:43:23;;;;;;;3.97;2.63;;;15.60;99.90;;;;;;21033569;28;20486;-60
2022/07/09 18:53:26;;;;;;;5.53;2.83;;;15.30;99.90;;;;;;20980556;28;20187;-59
2022/07/09 19:03:28;;;;;;;6.80;4.82;;;15.00;99.90;;;;;;20961730;28;20036;-58
2022/07/09 19:13:32;;;;;;;6.22;4.55;;;14.80;99.90;;;;;;20962988;28;20036;-60
2022/07/09 19:23:35;;;;;;;3.83;2.58;;;14.50;99.90;;;;;;20963028;28;20090;-60
2022/07/09 19:44:09;;;;;;;5.40;2.90;;;14.00;99.90;;;;;;20972117;28;20044;-55
2022/07/09 19:54:12;;;;;;;3.57;2.70;;;13.90;99.90;;;;;;21045543;28;20029;-60
2022/07/09 20:04:14;;;;;;;6.10;2.92;;;13.90;99.90;;;;;;21060187;28;20052;-60
2022/07/09 20:14:17;;;;;;;3.13;2.80;;;13.70;99.90;;;;;;21067153;28;20430;-57
2022/07/09 20:24:19;;;;;;;4.00;2.97;;;13.40;99.90;;;;;;21029120;28;20036;-60
2022/07/09 20:34:22;;;;;;;10.18;7.40;;;13.10;99.90;;;;;;20974307;28;20032;-59
2022/07/09 20:44:25;;;;;;;3.55;3.25;;;12.80;99.90;;;;;;20973939;28;20040;-59
2022/07/09 20:54:28;;;;;;;6.15;4.10;;;12.70;99.90;;;;;;20989464;28;20036;-59
2022/07/09 21:04:30;;;;;;;4.82;3.50;;;12.60;99.90;;;;;;21049683;28;20588;-59
2022/07/09 21:14:33;;;;;;;7.93;4.70;;;12.50;99.90;;;;;;21055473;28;20100;-60
2022/07/09 21:24:35;;;;;;;5.10;3.92;;;12.40;99.90;;;;;;21053793;28;20554;-59
2022/07/09 21:34:38;;;;;;;8.57;3.40;;;12.30;99.90;;;;;;21053765;28;20036;-59
2022/07/09 21:44:41;;;;;;;10.32;6.40;;;12.30;99.90;;;;;;21038748;28;20480;-59
2022/07/09 21:54:43;;;;;;;8.57;7.28;;;12.20;99.90;;;;;;20968699;28;20040;-59
2022/07/09 22:04:45;;;;;;;10.07;7.60;;;12.10;99.90;;;;;;20968372;28;20116;-59
2022/07/09 22:14:48;;;;;;;9.23;6.75;;;12.00;99.90;;;;;;20967493;28;20560;-59
2022/07/09 22:24:52;;;;;;;10.43;6.85;;;12.00;99.90;;;;;;21001838;28;20048;-59
2022/07/09 22:34:55;;;;;;;12.55;6.07;;;11.90;99.90;;;;;;21050042;28;20089;-60
2022/07/09 22:44:57;;;;;;;12.35;5.90;;;11.70;99.90;;;;;;21051194;28;20400;-60
2022/07/09 22:54:59;;;;;;;7.60;5.70;;;11.60;99.90;;;;;;21050647;28;20067;-51
2022/07/09 23:05:02;;;;;;;11.13;6.05;;;11.70;99.90;;;;;;20967264;28;20083;-59
2022/07/09 23:15:05;;;;;;;5.38;4.10;;;11.80;99.90;;;;;;20966808;28;20481;-60
2022/07/09 23:25:08;;;;;;;7.72;5.00;;;11.60;99.90;;;;;;20967143;28;20032;-60
2022/07/09 23:35:11;;;;;;;9.85;7.30;;;11.60;99.90;;;;;;20966187;28;20501;-60
2022/07/09 23:45:13;;;;;;;7.22;5.03;;;11.80;99.90;;;;;;20986254;28;20085;-60
2022/07/09 23:55:16;;;;;;;8.57;5.00;;;12.00;99.90;;;;;;21065906;28;20392;-60
